METAR Data
IDs: Format: Raw Decoded Include TAF

Data at: 2111 UTC 14 Dec 2018

Region: TOP
KATL 142052Z 06015KT 1SM R09R/P6000FT -RA BR OVC004 11/08 A2991 RMK AO2 SFC VIS 5 SLP129 P0005 60012 T01060083 58019

KBOS 142054Z 15003KT 10SM BKN060 BKN160 OVC250 06/02 A3039 RMK AO2 SLP291 T00560017 56013

KBWI 142105Z 00000KT 2SM BR SCT006 BKN090 OVC110 08/07 A3032 RMK AO2 T00780067

KCLE 142051Z 28003KT 10SM BKN090 OVC110 13/03 A3018 RMK AO2 SLP222 T01280028 53004

KCLT 142052Z 35007KT 1 1/4SM BR OVC003 06/06 A3009 RMK AO2 SLP190 60001 T00610061 55012

KCVG 142052Z 06008KT 10SM BKN049 BKN070 BKN200 12/04 A3006 RMK AO2 SLP180 T01220039 56010

KDCA 142052Z 06006KT 7SM OVC090 08/04 A3032 RMK AO2 SLP268 T00830044 56012

KDEN 142053Z 13013KT 10SM SCT220 12/M12 A3020 RMK AO2 SLP220 T01221122 56021

KDFW 142053Z 35025G30KT 10SM OVC014 08/05 A2997 RMK AO2 PK WND 34031/2027 RAB1958E09 SLP149 P0000 60000 T00780050 55001

KDTW 142053Z 28003KT 7SM BKN180 OVC240 08/04 A3015 RMK AO2 SLP214 T00780039 53001 $

KEWR 142051Z 14006KT 10SM FEW020 SCT040 OVC070 10/07 A3035 RMK AO2 SLP277 T01000072 58009

KFLL 142053Z 15015KT 10SM BKN026 BKN250 27/23 A2999 RMK AO2 SLP155 T02670228 55007

KIAD 142052Z 05003KT 6SM -RA BR OVC070 07/04 A3031 RMK AO2 RAB44 SLP265 P0000 60000 T00670039 56015

KIAH 142053Z 29015G25KT 10SM OVC021 09/06 A2995 RMK AO2 PK WND 29026/2015 SLP143 T00940056 53004

KJFK 142051Z 13009KT 10SM SCT028 BKN034 OVC070 09/08 A3037 RMK AO2 SLP284 T00940083 58007

KLAS 142056Z 00000KT 10SM FEW150 BKN200 BKN250 12/M10 A3024 RMK AO2 SLP239 T01221100 56035

KLAX 142053Z 26005KT 10SM SCT140 BKN180 OVC250 18/01 A3013 RMK AO2 SLP201 T01830011 56023

KLGA 142051Z 15007KT 10SM FEW016 BKN036 OVC070 10/07 A3036 RMK AO2 SLP279 T01000067 58009

KMCO 142053Z 15007KT 10SM FEW021 BKN075 BKN090 OVC180 25/20 A2996 RMK AO2 SLP142 60000 T02500200 56016

KMDW 142053Z 03007KT 2SM BR OVC006 05/04 A3018 RMK AO2 SLP226 T00500039 55001

KMEM 142107Z 01013G18KT 4SM R36L/5000VP6000FT +TSRA BR OVC005CB 12/12 A2979 RMK AO2 LTG DSNT S AND SW TSB04 OCNL LTGCACG N TS N MOV NW P0004 T01170117

KMIA 142053Z 17013G22KT 10SM SCT023 BKN250 26/22 A3000 RMK AO2 PK WND 15027/2025 SLP160 T02610222 55005

KMSP 142053Z 21005KT 10SM FEW250 03/M04 A3017 RMK AO2 SLP225 T00331039 55004

KORD 142051Z 36004KT 1 3/4SM BR OVC005 04/04 A3017 RMK AO2 SLP222 T00440039 53001

KPDX 142053Z 11010KT 10SM FEW100 BKN150 BKN250 12/01 A2956 RMK AO2 SLP009 T01220006 58016 $

KPHL 142054Z 00000KT 10SM SCT017 BKN080 OVC120 09/08 A3034 RMK AO2 SLP272 T00940078 56013

KPHX 142051Z 12004KT 10SM FEW200 FEW230 BKN250 18/M08 A3021 RMK AO2 SLP222 T01831083 58029

KPIT 142051Z 00000KT 10SM SCT024 BKN065 OVC150 09/03 A3018 RMK AO2 SLP236 T00940028 56001

KSAN 142051Z 33004KT 10SM SCT200 BKN250 14/02 A3012 RMK AO2 SLP199 T01440022 56027

KSEA 142053Z 11011KT 10SM FEW120 BKN150 13/M02 A2948 RMK AO2 SLP990 T01281017 58028

KSFO 142056Z 18017G35KT 10SM FEW023 SCT028 BKN034 16/11 A3005 RMK AO2 PK WND 18035/2047 SLP176 60001 T01560106 58014

KSLC 142054Z 36003KT 10SM FEW150 BKN200 BKN240 04/M07 A3026 RMK AO2 SLP261 T00441072 56038

KSTL 142051Z 36012G21KT 4SM BR OVC004 07/07 A3004 RMK AO2 SLP177 T00670067 56010

KTPA 142053Z 15003KT 10SM FEW055 BKN140 OVC280 23/21 A2995 RMK AO2 SLP141 T02330206 55007